Airfield :
LOGIN :

Register | Disclaimer

   EN    FR    IT 

 










Legend :    VFR   Marginal VFR   IFR   Intensive IFR   Very Intensive IFR
Visi :
Ceiling :
>= 8 km
>= 3000ft
5 to 8 km
1000 to 3000 ft
1500m to 5 km
500 to 1000 ft
800 to 1500m
200 to 500 ft
< 800m
< 200 ft
Symbols :   Thunderstorms  Fog  Heavy snow  Heavy precipitations  Wind > 20 kt
SIGMETs :     Misc.  Thunderstorms  Icing  Turbulence  Mountain Waves  Volcanic Ashes







- Airport Elevation : 503 ft
- IATA code : BLE


ESSD - Borlange

CURRENT METAR :
  • 230650Z 00000KT 9999 FEW043 OVC140 M11/M11 Q1006

EXPIRED METARs :
  • 230620Z AUTO 24002KT 9999 FEW043/// OVC140/// M11/M11 Q1006
  • 230550Z AUTO 31002KT 9999 OVC043/// M11/M11 Q1006
  • 230520Z AUTO VRB02KT 9999 OVC041/// M10/M10 Q1006
  • 230450Z AUTO 00000KT 9999 OVC040/// M10/M10 Q1006
  • 230420Z AUTO VRB01KT 9999 OVC038/// M10/M10 Q1006

TAF TAF ESSD
Valid from the 23 at 07:00 until the 23 at 15:00 UTC


230630Z 2307/2315 VRB02KT 9999 BKN035
PROB40 2307/2311 3000 BR BKN007
No reported NOTAMs for that airfield.



MET'MAP, your aeronautical weather chart ! - Copyright ORBIFLY December 2007 - Disclaimer

ORBIFLY MET'MAP TEAM :

Programming & Development : Alexandra Zaïnal
Concept & Development : Baudouin d'Aumeries
Co-Development & Prog : Marc-Olivier Méhu
Technical & hardware support : Manuel Goepfert

Contact : metmap@orbifly.com




SOURCES & CREDITS :

   NOAA